createdAt,value
2018-03-01T00:01:11.070Z,94003.27
2018-03-01T00:03:38.627Z,94010.28
2018-03-01T00:06:06.370Z,94003.37
2018-03-01T00:08:33.917Z,93994.69
2018-03-01T00:11:01.480Z,93993.80
2018-03-01T00:13:29.228Z,93988.31
2018-03-01T00:15:56.780Z,93980.20
2018-03-01T00:18:24.327Z,93984.15
2018-03-01T00:20:52.002Z,93972.38
2018-03-01T00:23:19.549Z,93977.03
2018-03-01T00:25:47.099Z,93985.20
2018-03-01T00:28:14.685Z,93982.67
2018-03-01T00:30:42.233Z,93989.84
2018-03-01T00:33:09.772Z,93982.19
2018-03-01T00:35:37.364Z,93980.58
2018-03-01T00:38:04.912Z,93984.05
2018-03-01T00:40:32.467Z,93987.30
2018-03-01T00:43:00.192Z,93984.05
2018-03-01T00:45:27.747Z,93996.05
2018-03-01T00:47:55.303Z,93982.62
2018-03-01T00:50:23.176Z,93975.60
2018-03-01T00:52:50.727Z,93994.08
2018-03-01T00:55:18.265Z,93994.87
2018-03-01T00:57:45.836Z,93984.56
2018-03-01T01:00:13.397Z,93979.96
2018-03-01T01:02:40.933Z,93984.75
2018-03-01T01:05:08.848Z,93985.53
2018-03-01T01:07:36.410Z,93983.31
2018-03-01T01:10:03.973Z,93981.34
2018-03-01T01:12:31.562Z,93987.72
2018-03-01T01:14:59.097Z,93990.47
2018-03-01T01:17:26.642Z,93990.41
2018-03-01T01:19:54.322Z,93998.97
2018-03-01T01:22:21.874Z,93997.65
2018-03-01T01:24:49.441Z,93999.77
2018-03-01T01:27:17.010Z,93989.33
2018-03-01T01:29:44.560Z,93993.09
2018-03-01T01:32:12.110Z,93993.16
2018-03-01T01:34:39.983Z,93995.89
2018-03-01T01:37:07.521Z,93998.61
2018-03-01T01:39:35.071Z,94002.82
2018-03-01T01:42:02.753Z,93998.97
2018-03-01T01:44:30.292Z,93998.55
2018-03-01T01:46:57.843Z,94002.06
2018-03-01T01:49:25.579Z,94009.50
2018-03-01T01:51:53.171Z,94007.27
2018-03-01T01:54:20.717Z,94014.59
2018-03-01T01:56:48.273Z,94015.53
2018-03-01T01:59:15.822Z,94009.89
2018-03-01T02:01:43.545Z,94014.14
2018-03-01T02:04:11.094Z,94009.36
2018-03-01T02:06:38.634Z,94006.00
2018-03-01T02:09:06.222Z,94006.58
2018-03-01T02:11:33.775Z,94001.93
2018-03-01T02:14:01.320Z,94002.42
2018-03-01T02:16:29.193Z,93996.70
2018-03-01T02:18:56.742Z,93998.94
2018-03-01T02:21:24.289Z,93996.70
2018-03-01T02:23:51.981Z,94004.63
2018-03-01T02:26:19.534Z,93997.52
2018-03-01T02:28:47.080Z,94002.16
2018-03-01T02:31:14.967Z,94006.22
2018-03-01T02:33:42.518Z,94003.89
2018-03-01T02:36:10.106Z,94002.55
2018-03-01T02:38:37.682Z,94003.05
2018-03-01T02:41:05.259Z,94003.75
2018-03-01T02:43:32.802Z,94005.23
2018-03-01T02:46:00.391Z,94015.01
2018-03-01T02:48:27.940Z,94011.74
2018-03-01T02:50:55.478Z,94005.70
2018-03-01T02:53:23.173Z,93998.03
2018-03-01T02:55:50.724Z,94000.86
2018-03-01T02:58:18.291Z,94001.28
2018-03-01T03:00:46.014Z,93996.56
2018-03-01T03:03:13.574Z,93990.77
2018-03-01T03:05:41.144Z,93987.31
2018-03-01T03:08:08.718Z,93988.73
2018-03-01T03:10:36.266Z,93990.66
2018-03-01T03:13:03.814Z,93992.64
2018-03-01T03:15:31.593Z,93990.33
2018-03-01T03:17:59.148Z,94000.06
2018-03-01T03:20:26.694Z,93995.55
2018-03-01T03:22:54.634Z,93999.28
2018-03-01T03:25:22.178Z,93999.28
2018-03-01T03:27:49.730Z,94006.11
2018-03-01T03:30:17.306Z,94004.66
2018-03-01T03:32:44.854Z,94004.95
2018-03-01T03:35:12.397Z,94009.67
2018-03-01T03:37:40.128Z,94015.59
2018-03-01T03:40:07.671Z,94024.36
2018-03-01T03:42:35.219Z,94018.37
2018-03-01T03:45:02.893Z,94028.02
2018-03-01T03:47:30.440Z,94020.82
2018-03-01T03:49:57.987Z,94023.41
2018-03-01T03:52:25.562Z,94025.90
2018-03-01T03:54:53.111Z,94027.89
2018-03-01T03:57:20.653Z,94028.78
2018-03-01T03:59:48.381Z,94018.45
2018-03-01T04:02:15.921Z,94014.66
2018-03-01T04:04:43.465Z,94017.84
2018-03-01T04:07:11.054Z,94021.11
2018-03-01T04:09:38.600Z,94022.02
2018-03-01T04:12:06.149Z,94023.95
2018-03-01T04:14:33.730Z,94021.41
2018-03-01T04:17:01.281Z,94017.48
2018-03-01T04:19:28.857Z,94021.94
2018-03-01T04:21:56.490Z,94017.11
2018-03-01T04:24:24.047Z,94020.71
2018-03-01T04:26:51.598Z,94023.50
2018-03-01T04:29:19.174Z,94029.73
2018-03-01T04:31:46.726Z,94020.91
2018-03-01T04:34:14.293Z,94027.56
2018-03-01T04:36:42.034Z,94026.61
2018-03-01T04:39:09.591Z,94027.44
2018-03-01T04:41:37.143Z,94025.27
2018-03-01T04:44:04.879Z,94020.07
2018-03-01T04:46:32.422Z,94022.23
2018-03-01T04:48:59.963Z,94018.06
2018-03-01T04:51:27.543Z,94019.66
2018-03-01T04:53:55.095Z,94024.87
2018-03-01T04:56:22.645Z,94024.89
2018-03-01T04:58:50.481Z,94023.81
2018-03-01T05:01:18.017Z,94027.22
2018-03-01T05:03:45.574Z,94022.25
2018-03-01T05:06:13.287Z,94016.21
2018-03-01T05:08:40.842Z,94020.23
2018-03-01T05:11:08.385Z,94022.94
2018-03-01T05:13:36.079Z,94027.33
2018-03-01T05:16:03.638Z,94024.39
2018-03-01T05:18:31.184Z,94026.24
2018-03-01T05:20:59.065Z,94022.38
2018-03-01T05:23:26.610Z,94031.42
2018-03-01T05:25:54.157Z,94041.28
2018-03-01T05:28:21.739Z,94046.67
2018-03-01T05:30:49.290Z,94038.88
2018-03-01T05:33:16.858Z,94049.45
2018-03-01T05:35:44.439Z,94049.09
2018-03-01T05:38:11.987Z,94044.88
2018-03-01T05:40:39.534Z,94045.05
2018-03-01T05:43:07.111Z,94053.41
2018-03-01T05:45:34.657Z,94052.50
2018-03-01T05:48:02.205Z,94044.25
2018-03-01T05:50:30.086Z,94041.61
2018-03-01T05:52:57.643Z,94029.06
2018-03-01T05:55:25.189Z,94021.56
2018-03-01T05:57:52.868Z,94019.42
2018-03-01T06:00:20.665Z,94013.28
2018-03-01T06:02:48.211Z,94016.40
2018-03-01T06:05:15.840Z,94011.25
2018-03-01T06:07:43.384Z,94009.64
2018-03-01T06:10:10.953Z,94013.33
2018-03-01T06:12:38.533Z,94002.64
2018-03-01T06:15:06.087Z,94003.33
2018-03-01T06:17:33.629Z,94008.33
2018-03-01T06:20:01.225Z,94002.39
2018-03-01T06:22:28.779Z,94003.00
2018-03-01T06:24:56.337Z,94003.73
2018-03-01T06:27:24.125Z,94000.72
2018-03-01T06:29:51.676Z,94004.50
2018-03-01T06:32:19.224Z,94002.18
2018-03-01T06:34:46.810Z,94002.23
2018-03-01T06:37:14.358Z,94001.55
2018-03-01T06:39:41.905Z,94001.29
2018-03-01T06:42:09.494Z,93998.08
2018-03-01T06:44:37.048Z,94000.32
2018-03-01T06:47:04.602Z,94000.21
2018-03-01T06:49:32.324Z,93985.37
2018-03-01T06:51:59.868Z,93985.38
2018-03-01T06:54:27.442Z,93981.58
2018-03-01T06:56:54.999Z,93981.55
2018-03-01T06:59:22.542Z,93984.91
2018-03-01T07:01:50.476Z,93987.41
2018-03-01T07:04:18.019Z,93986.44
2018-03-01T07:06:45.564Z,93979.06
2018-03-01T07:09:13.243Z,93981.14
2018-03-01T07:11:40.823Z,93982.25
2018-03-01T07:14:08.374Z,93977.81
2018-03-01T07:16:35.974Z,93986.87
2018-03-01T07:19:03.558Z,93998.02
2018-03-01T07:21:31.101Z,93998.84
2018-03-01T07:23:58.835Z,93993.31
2018-03-01T07:26:26.383Z,93986.11
2018-03-01T07:28:53.921Z,93984.81
2018-03-01T07:31:21.792Z,93977.53
2018-03-01T07:33:49.338Z,93979.33
2018-03-01T07:36:16.886Z,93974.52
2018-03-01T07:38:44.470Z,93979.28
2018-03-01T07:41:12.034Z,93974.58
2018-03-01T07:43:39.586Z,93970.43
2018-03-01T07:46:07.168Z,93968.88
2018-03-01T07:48:34.718Z,93970.28
2018-03-01T07:51:02.303Z,93969.94
2018-03-01T07:53:29.858Z,93961.55
2018-03-01T07:55:57.415Z,93953.58
2018-03-01T07:58:24.971Z,93941.78
2018-03-01T08:00:52.689Z,93939.72
2018-03-01T08:03:20.265Z,93953.62
2018-03-01T08:05:47.818Z,93947.38
2018-03-01T08:08:15.491Z,93936.82
2018-03-01T08:10:43.069Z,93935.86
2018-03-01T08:13:10.623Z,93933.37
2018-03-01T08:15:38.499Z,93928.08
2018-03-01T08:18:06.051Z,93933.17
2018-03-01T08:20:33.609Z,93927.31
2018-03-01T08:23:01.185Z,93928.81
2018-03-01T08:25:28.741Z,93925.11
2018-03-01T08:27:56.286Z,93921.58
2018-03-01T08:30:23.882Z,93919.70
2018-03-01T08:32:51.434Z,93913.89
2018-03-01T08:35:18.981Z,93913.95
2018-03-01T08:37:46.591Z,93915.72
2018-03-01T08:40:14.140Z,93918.13
2018-03-01T08:42:41.697Z,93911.86
2018-03-01T08:45:09.282Z,93901.99
2018-03-01T08:47:36.834Z,93903.22
2018-03-01T08:50:04.421Z,93919.44
2018-03-01T08:52:32.151Z,93917.36
2018-03-01T08:54:59.767Z,93906.94
2018-03-01T08:57:27.276Z,93901.61
2018-03-01T08:59:55.151Z,93902.83
2018-03-01T09:02:22.684Z,93881.06
2018-03-01T09:04:50.255Z,93871.09
2018-03-01T09:07:17.843Z,93878.97
2018-03-01T09:09:45.427Z,93854.34
2018-03-01T09:12:12.983Z,93858.58
2018-03-01T09:14:40.584Z,93855.66
2018-03-01T09:17:08.149Z,93848.83
2018-03-01T09:19:35.699Z,93838.31
2018-03-01T09:22:03.444Z,93846.12
2018-03-01T09:24:31.004Z,93838.76
2018-03-01T09:26:58.565Z,93845.34
2018-03-01T09:29:26.312Z,93839.84
2018-03-01T09:31:53.870Z,93847.20
2018-03-01T09:34:21.428Z,93853.22
2018-03-01T09:36:49.330Z,93832.20
2018-03-01T09:39:16.874Z,93836.44
2018-03-01T09:41:44.454Z,93839.55
2018-03-01T09:44:12.026Z,93820.39
2018-03-01T09:46:39.578Z,93815.64
2018-03-01T09:49:07.130Z,93810.64
2018-03-01T09:51:35.011Z,93814.14
2018-03-01T09:54:02.639Z,93811.87
2018-03-01T09:56:30.198Z,93804.98
2018-03-01T09:58:57.805Z,93803.56
2018-03-01T10:01:25.368Z,93795.63
2018-03-01T10:03:52.964Z,93804.79
2018-03-01T10:06:20.534Z,93792.56
2018-03-01T10:08:48.089Z,93798.17
2018-03-01T10:11:15.651Z,93796.75
2018-03-01T10:13:43.381Z,93789.05
2018-03-01T10:16:10.956Z,93785.72
2018-03-01T10:18:38.507Z,93788.66
2018-03-01T10:21:06.143Z,93778.46
2018-03-01T10:23:33.697Z,93777.86
2018-03-01T10:26:01.254Z,93764.41
2018-03-01T10:28:28.964Z,93770.58
2018-03-01T10:30:56.509Z,93756.42
2018-03-01T10:33:24.078Z,93757.25
2018-03-01T10:35:51.679Z,93750.89
2018-03-01T10:38:19.235Z,93742.34
2018-03-01T10:40:46.782Z,93741.05
2018-03-01T10:43:14.370Z,93737.27
2018-03-01T10:45:41.914Z,93734.42
2018-03-01T10:48:09.462Z,93736.80
2018-03-01T10:50:37.043Z,93730.88
2018-03-01T10:53:04.610Z,93730.56
2018-03-01T10:55:32.163Z,93722.53
2018-03-01T10:57:59.910Z,93724.69
2018-03-01T11:00:34.693Z,93712.28
2018-03-01T11:03:02.242Z,93702.26
2018-03-01T11:05:29.810Z,93698.24
2018-03-01T11:07:57.551Z,93697.00
2018-03-01T11:10:25.122Z,93687.81
2018-03-01T11:12:52.674Z,93691.98
2018-03-01T11:15:20.280Z,93689.98
2018-03-01T11:17:47.829Z,93680.40
2018-03-01T11:20:15.400Z,93681.78
2018-03-01T11:22:43.190Z,93679.91
2018-03-01T11:25:10.766Z,93681.63
2018-03-01T11:27:38.329Z,93678.09
2018-03-01T11:30:05.929Z,93675.34
2018-03-01T11:32:33.475Z,93664.81
2018-03-01T11:35:01.122Z,93660.42
2018-03-01T11:37:28.982Z,93660.92
2018-03-01T11:39:56.553Z,93658.38
2018-03-01T11:42:24.106Z,93640.88
2018-03-01T11:44:51.819Z,93652.56
2018-03-01T11:47:19.397Z,93647.84
2018-03-01T11:49:46.936Z,93644.77
2018-03-01T11:52:14.540Z,93645.47
2018-03-01T11:54:42.091Z,93637.22
2018-03-01T11:57:09.647Z,93631.92
2018-03-01T11:59:37.382Z,93622.48
2018-03-01T12:02:04.941Z,93613.53
2018-03-01T12:04:32.504Z,93607.67
2018-03-01T12:07:00.331Z,93601.16
2018-03-01T12:09:27.891Z,93609.73
2018-03-01T12:11:55.443Z,93608.11
2018-03-01T12:14:23.041Z,93614.42
2018-03-01T12:16:50.606Z,93620.64
2018-03-01T12:19:18.155Z,93621.87
2018-03-01T12:21:45.906Z,93617.84
2018-03-01T12:24:13.461Z,93602.70
2018-03-01T12:26:41.006Z,93606.08
2018-03-01T12:29:08.590Z,93601.14
2018-03-01T12:31:36.149Z,93596.83
2018-03-01T12:34:03.700Z,93591.83
2018-03-01T12:36:31.432Z,93602.90
2018-03-01T12:38:58.993Z,93599.56
2018-03-01T12:41:26.550Z,93607.23
2018-03-01T12:43:54.146Z,93595.45
2018-03-01T12:46:21.700Z,93598.25
2018-03-01T12:48:49.266Z,93596.03
2018-03-01T12:51:16.882Z,93598.13
2018-03-01T12:53:44.458Z,93590.25
2018-03-01T12:56:12.033Z,93589.67
2018-03-01T12:58:39.790Z,93595.44
2018-03-01T13:01:07.379Z,93578.88
2018-03-01T13:03:34.962Z,93579.70
2018-03-01T13:06:02.857Z,93574.12
2018-03-01T13:08:30.439Z,93581.80
2018-03-01T13:10:58.035Z,93580.34
2018-03-01T13:13:25.704Z,93584.82
2018-03-01T13:15:53.283Z,93573.17
2018-03-01T13:18:20.850Z,93571.66
2018-03-01T13:20:48.440Z,93559.80
2018-03-01T13:23:16.042Z,93572.72
2018-03-01T13:25:43.612Z,93554.91
2018-03-01T13:28:11.523Z,93550.84
2018-03-01T13:30:42.522Z,93543.97
2018-03-01T13:36:25.611Z,93531.73
2018-03-01T13:38:53.213Z,93531.30
2018-03-01T13:41:20.795Z,93533.09
2018-03-01T13:43:48.358Z,93537.86
2018-03-01T13:46:26.540Z,93547.18
2018-03-01T13:48:54.107Z,93550.49
2018-03-01T13:51:21.672Z,93551.91
2018-03-01T13:53:49.484Z,93545.66
2018-03-01T13:56:17.066Z,93534.58
2018-03-01T13:58:44.647Z,93543.30
2018-03-01T14:01:12.278Z,93544.73
2018-03-01T14:03:39.846Z,93541.22
2018-03-01T14:06:10.221Z,93534.12
2018-03-01T14:08:37.820Z,93541.70
2018-03-01T14:11:05.410Z,93524.20
2018-03-01T14:13:42.146Z,93524.14
2018-03-01T14:16:09.709Z,93523.83
2018-03-01T14:18:40.847Z,93522.95
2018-03-01T14:21:14.047Z,93527.48
2018-03-01T14:23:46.450Z,93525.08
2018-03-01T14:26:28.905Z,93525.05
2018-03-01T14:29:06.374Z,93513.67
2018-03-01T14:31:34.007Z,93514.91
2018-03-01T14:34:01.573Z,93518.90
2018-03-01T14:36:29.118Z,93516.12
2018-03-01T14:38:56.814Z,93513.98
2018-03-01T14:41:24.369Z,93503.66
2018-03-01T14:43:51.928Z,93505.56
2018-03-01T14:46:19.655Z,93497.80
2018-03-01T14:48:47.238Z,93492.02
2018-03-01T14:51:14.791Z,93494.84
2018-03-01T14:53:42.380Z,93504.36
2018-03-01T14:56:09.929Z,93496.51
2018-03-01T14:58:37.512Z,93511.53
2018-03-01T15:01:05.090Z,93504.34
2018-03-01T15:03:32.634Z,93505.47
2018-03-01T15:06:00.176Z,93500.22
2018-03-01T15:08:28.047Z,93490.01
2018-03-01T15:10:55.590Z,93481.39
2018-03-01T15:13:23.129Z,93485.95
2018-03-01T15:15:50.730Z,93494.53
2018-03-01T15:18:18.286Z,93492.10
2018-03-01T15:20:45.838Z,93495.41
2018-03-01T15:23:13.722Z,93494.59
2018-03-01T15:25:41.270Z,93493.30
2018-03-01T15:28:08.858Z,93498.63
2018-03-01T15:30:36.611Z,93499.89
2018-03-01T15:33:04.222Z,93503.11
2018-03-01T15:35:31.775Z,93501.88
2018-03-01T15:37:59.363Z,93518.13
2018-03-01T15:40:26.950Z,93518.11
2018-03-01T15:42:54.550Z,93515.73
2018-03-01T15:45:22.299Z,93503.07
2018-03-01T15:47:49.864Z,93507.39
2018-03-01T15:50:17.477Z,93514.78
2018-03-01T15:52:45.333Z,93512.36
2018-03-01T15:55:12.886Z,93513.97
2018-03-01T15:57:40.453Z,93511.36
2018-03-01T16:00:08.158Z,93510.23
2018-03-01T16:02:35.741Z,93507.30
2018-03-01T16:05:03.311Z,93503.58
2018-03-01T16:07:31.090Z,93505.66
2018-03-01T16:09:58.668Z,93497.87
2018-03-01T16:12:26.249Z,93500.25
2018-03-01T16:14:53.850Z,93503.86
2018-03-01T16:17:21.416Z,93501.44
2018-03-01T16:19:49.011Z,93490.42
2018-03-01T16:22:16.646Z,93493.33
2018-03-01T16:24:44.208Z,93488.35
2018-03-01T16:27:11.777Z,93494.10
2018-03-01T16:29:39.390Z,93492.85
2018-03-01T16:32:06.987Z,93506.36
2018-03-01T16:34:34.567Z,93503.43
2018-03-01T16:37:02.455Z,93504.64
2018-03-01T16:39:30.009Z,93503.80
2018-03-01T16:41:57.571Z,93502.16
2018-03-01T16:44:25.342Z,93495.60
2018-03-01T16:46:52.907Z,93495.56
2018-03-01T16:49:20.479Z,93491.82
2018-03-01T16:51:48.227Z,93482.38
2018-03-01T16:54:15.777Z,93487.70
2018-03-01T16:56:43.385Z,93496.66
2018-03-01T16:59:10.963Z,93495.36
2018-03-01T17:01:38.544Z,93480.58
2018-03-01T17:04:06.113Z,93480.99
2018-03-01T17:06:33.862Z,93469.16
2018-03-01T17:09:01.419Z,93470.37
2018-03-01T17:11:28.986Z,93465.41
2018-03-01T17:13:56.591Z,93459.38
2018-03-01T17:16:24.177Z,93469.09
2018-03-01T17:18:51.750Z,93455.15
2018-03-01T17:21:19.337Z,93452.70
2018-03-01T17:23:46.907Z,93445.23
2018-03-01T17:26:14.460Z,93448.83
2018-03-01T17:28:42.247Z,93443.56
2018-03-01T17:31:09.815Z,93430.61
2018-03-01T17:33:37.359Z,93442.11
2018-03-01T17:36:04.938Z,93433.08
2018-03-01T17:38:32.481Z,93431.87
2018-03-01T17:41:00.036Z,93429.47
2018-03-01T17:43:27.621Z,93431.14
2018-03-01T17:45:55.179Z,93433.55
2018-03-01T17:48:22.751Z,93430.70
2018-03-01T17:50:50.655Z,93420.50
2018-03-01T17:53:18.228Z,93417.94
2018-03-01T17:55:45.878Z,93412.30
2018-03-01T17:58:13.450Z,93407.76
2018-03-01T18:00:41.035Z,93413.48
2018-03-01T18:03:08.655Z,93411.78
2018-03-01T18:05:36.210Z,93396.03
2018-03-01T18:08:03.786Z,93390.09
2018-03-01T18:10:31.573Z,93385.59
2018-03-01T18:12:59.135Z,93383.60
2018-03-01T18:15:26.702Z,93382.72
2018-03-01T18:17:54.519Z,93378.66
2018-03-01T18:20:22.087Z,93377.91
2018-03-01T18:22:49.649Z,93372.09
2018-03-01T18:25:17.244Z,93375.04
2018-03-01T18:27:44.802Z,93366.44
2018-03-01T18:30:12.427Z,93358.22
2018-03-01T18:32:40.192Z,93362.78
2018-03-01T18:35:07.759Z,93359.06
2018-03-01T18:37:35.313Z,93355.64
2018-03-01T18:40:03.081Z,93353.84
2018-03-01T18:42:30.652Z,93354.00
2018-03-01T18:44:58.216Z,93363.45
2018-03-01T18:47:25.814Z,93365.94
2018-03-01T18:49:53.384Z,93363.59
2018-03-01T18:52:20.971Z,93357.13
2018-03-01T18:54:48.580Z,93343.63
2018-03-01T18:57:16.166Z,93340.43
2018-03-01T18:59:43.743Z,93357.47
2018-03-01T19:02:11.360Z,93358.19
2018-03-01T19:04:38.925Z,93352.06
2018-03-01T19:07:06.495Z,93355.81
2018-03-01T19:09:34.131Z,93345.70
2018-03-01T19:12:01.689Z,93355.59
2018-03-01T19:14:29.258Z,93361.41
2018-03-01T19:16:57.139Z,93350.52
2018-03-01T19:19:24.708Z,93350.95
2018-03-01T19:21:52.270Z,93359.48
2018-03-01T19:24:20.037Z,93359.51
2018-03-01T19:26:47.586Z,93365.73
2018-03-01T19:29:15.173Z,93363.64
2018-03-01T19:31:43.070Z,93361.72
2018-03-01T19:34:10.632Z,93363.37
2018-03-01T19:36:38.192Z,93356.42
2018-03-01T19:39:06.111Z,93352.34
2018-03-01T19:41:33.659Z,93360.93
2018-03-01T19:44:01.214Z,93361.52
2018-03-01T19:46:28.931Z,93343.66
2018-03-01T19:48:56.494Z,93346.95
2018-03-01T19:51:24.087Z,93340.09
2018-03-01T19:53:51.696Z,93348.70
2018-03-01T19:56:19.274Z,93340.50
2018-03-01T19:58:46.826Z,93341.38
2018-03-01T20:01:14.436Z,93337.30
2018-03-01T20:03:41.991Z,93338.38
2018-03-01T20:06:09.551Z,93329.95
2018-03-01T20:08:37.779Z,93335.66
2018-03-01T20:11:05.348Z,93337.12
2018-03-01T20:13:32.915Z,93338.44
2018-03-01T20:16:00.518Z,93343.00
2018-03-01T20:18:28.116Z,93333.28
2018-03-01T20:20:55.692Z,93336.60
2018-03-01T20:23:23.422Z,93324.70
2018-03-01T20:25:50.982Z,93323.48
2018-03-01T20:28:18.535Z,93314.44
2018-03-01T20:30:46.164Z,93305.88
2018-03-01T20:33:13.731Z,93293.97
2018-03-01T20:35:41.357Z,93291.53
2018-03-01T20:38:08.897Z,93290.71
2018-03-01T20:40:36.454Z,93278.45
2018-03-01T20:43:04.008Z,93277.24
2018-03-01T20:45:31.603Z,93278.86
2018-03-01T20:47:59.156Z,93264.98
2018-03-01T20:50:26.727Z,93276.36
2018-03-01T20:52:54.646Z,93286.12
2018-03-01T20:55:22.220Z,93274.97
2018-03-01T20:57:49.779Z,93260.00
2018-03-01T21:00:17.540Z,93261.31
2018-03-01T21:02:45.110Z,93264.87
2018-03-01T21:05:12.659Z,93253.80
2018-03-01T21:07:40.263Z,93246.89
2018-03-01T21:10:07.813Z,93245.30
2018-03-01T21:12:35.351Z,93231.47
2018-03-01T21:15:02.942Z,93235.20
2018-03-01T21:17:30.507Z,93235.98
2018-03-01T21:19:58.063Z,93232.37
2018-03-01T21:22:25.655Z,93230.34
2018-03-01T21:24:53.233Z,93226.68
2018-03-01T21:27:20.792Z,93215.27
2018-03-01T21:29:48.662Z,93226.27
2018-03-01T21:32:16.225Z,93227.86
2018-03-01T21:34:43.786Z,93228.70
2018-03-01T21:37:11.414Z,93234.08
2018-03-01T21:39:38.970Z,93223.05
2018-03-01T21:42:06.548Z,93221.40
2018-03-01T21:44:34.236Z,93218.56
2018-03-01T21:47:07.758Z,93220.66
2018-03-01T21:49:35.678Z,93217.28
2018-03-01T21:52:03.233Z,93209.93
2018-03-01T21:54:30.807Z,93209.57
2018-03-01T21:56:58.357Z,93205.89
2018-03-01T21:59:25.926Z,93212.02
2018-03-01T22:01:53.504Z,93201.81
2018-03-01T22:04:21.070Z,93199.31
2018-03-01T22:06:48.622Z,93200.61
2018-03-01T22:09:16.374Z,93196.88
2018-03-01T22:11:43.922Z,93191.58
2018-03-01T22:14:11.482Z,93203.48
2018-03-01T22:16:39.062Z,93207.19
2018-03-01T22:19:06.614Z,93198.64
2018-03-01T22:21:34.214Z,93201.85
2018-03-01T22:24:02.067Z,93195.29
2018-03-01T22:26:29.671Z,93187.94
2018-03-01T22:28:57.267Z,93177.34
2018-03-01T22:31:24.949Z,93178.16
2018-03-01T22:33:52.515Z,93172.48
2018-03-01T22:36:20.076Z,93171.67
2018-03-01T22:38:47.811Z,93176.56
2018-03-01T22:41:15.366Z,93168.39
2018-03-01T22:43:42.953Z,93169.59
2018-03-01T22:46:10.681Z,93170.45
2018-03-01T22:48:38.245Z,93158.60
2018-03-01T22:51:05.808Z,93151.21
2018-03-01T22:53:33.413Z,93147.96
2018-03-01T22:56:00.958Z,93144.68
2018-03-01T22:58:28.513Z,93155.67
2018-03-01T23:00:56.267Z,93153.67
2018-03-01T23:03:23.844Z,93139.81
2018-03-01T23:05:51.421Z,93149.20
2018-03-01T23:08:19.033Z,93135.68
2018-03-01T23:10:46.578Z,93126.66
2018-03-01T23:13:14.137Z,93139.34
2018-03-01T23:15:41.740Z,93143.44
2018-03-01T23:18:09.333Z,93129.52
2018-03-01T23:20:36.889Z,93140.55
2018-03-01T23:23:04.485Z,93131.94
2018-03-01T23:25:32.043Z,93135.63
2018-03-01T23:27:59.591Z,93127.02
2018-03-01T23:30:27.182Z,93131.45
2018-03-01T23:32:54.727Z,93130.62
2018-03-01T23:35:22.283Z,93137.58
2018-03-01T23:37:50.029Z,93137.96
2018-03-01T23:40:17.580Z,93126.06
2018-03-01T23:42:45.130Z,93121.56
2018-03-01T23:45:12.723Z,93126.83
2018-03-01T23:47:40.279Z,93124.79
2018-03-01T23:50:07.841Z,93110.09
2018-03-01T23:52:35.753Z,93110.96
2018-03-01T23:55:03.317Z,93108.52
2018-03-01T23:57:30.912Z,93100.33
2018-03-01T23:59:58.652Z,93100.33
